Terminal Aerodrome Forecast
Issued by NWS Jackson, KY

Home | Current Version | Previous Version | Text Only | Print | Product List | Glossary On
Versions: 1 2 3 4 5 6 7 8 9 10 11 12 13 14
000
FTUS43 KJKL 232300
TAFJKL
TAF
KJKL 232337Z 2400/2424 14005KT 6SM -RA OVC070
     FM240500 20009KT 4SM -RA BR OVC015 WS010/20045KT
     FM241300 20009KT P6SM OVC050
     FM241600 21015G30KT P6SM BKN050=

USA.gov is the U.S. government's official web portal to all federal, state and local government web resources and services.